Time;durP1;ratioP1;P1;durP2;ratioP2;P2;SDS_P1;SDS_P2;PMS_P1;PMS_P2;Temp;Humidity;BMP_temperature;BMP_pressure;BME280_temperature;BME280_humidity;BME280_pressure;Samples;Min_cycle;Max_cycle;Signal;HPM_P1;HPM_P2
2021/06/28 00:15:53;;;;;;;2.85;2.47;;;21.20;99.90;;;;;;1329056;22;21683;31
2021/06/28 01:57:31;;;;;;;2.83;2.63;;;21.30;99.90;;;;;;1214020;22;21665;-90
2021/06/28 02:10:51;;;;;;;4.30;2.97;;;21.20;99.90;;;;;;3614430;40;20209;-89
2021/06/28 02:41:23;;;;;;;3.58;3.28;;;21.60;99.90;;;;;;3671714;22;21178;-87
2021/06/28 02:58:44;;;;;;;3.80;3.40;;;20.60;99.90;;;;;;3697698;22;21137;-80
2021/06/28 03:23:38;;;;;;;9.02;3.90;;;21.30;99.90;;;;;;3641445;39;20610;-82
2021/06/28 03:29:46;;;;;;;8.18;5.15;;;21.30;99.90;;;;;;3618809;39;20225;-83
2021/06/28 03:32:45;;;;;;;4.28;3.88;;;21.40;99.90;;;;;;3621238;39;20579;-84
2021/06/28 03:42:01;;;;;;;;;;;;;;;;;;;;;
2021/06/28 03:44:53;;;;;;;3.78;3.33;;;21.50;99.90;;;;;;3502271;39;5684301;-82
2021/06/28 03:47:56;;;;;;;7.13;4.13;;;21.60;99.90;;;;;;3666077;22;21400;-86
2021/06/28 03:51:03;;;;;;;4.03;3.73;;;21.70;99.90;;;;;;3400679;39;10143292;-82
2021/06/28 03:54:07;;;;;;;3.65;3.35;;;21.60;99.90;;;;;;3618370;39;1376474;-83
2021/06/28 04:00:07;;;;;;;3.28;3.08;;;21.40;99.90;;;;;;3589905;40;20249;-83
2021/06/28 04:03:02;;;;;;;3.92;3.30;;;21.40;99.90;;;;;;3578999;39;20608;-81
2021/06/28 04:12:37;;;;;;;5.03;3.30;;;20.80;99.90;;;;;;3651814;39;20640;-81
2021/06/28 04:15:31;;;;;;;4.97;4.57;;;20.30;99.90;;;;;;3688009;22;20554;-83
2021/06/28 04:18:20;;;;;;;5.18;4.32;;;20.30;99.90;;;;;;3658924;39;20599;-83
2021/06/28 04:21:34;;;;;;;4.97;3.90;;;20.30;99.90;;;;;;3641636;39;20564;-83
2021/06/28 04:24:27;;;;;;;5.55;3.92;;;20.30;99.90;;;;;;3661867;39;20636;-81
2021/06/28 05:07:25;;;;;;;6.05;4.38;;;20.70;99.90;;;;;;3630446;39;20584;-82
2021/06/28 05:32:01;;;;;;;8.65;5.10;;;20.90;99.90;;;;;;3670776;39;20360;-81
2021/06/28 05:49:17;;;;;;;;;;;;;;;;;;;;;
2021/06/28 05:51:58;;;;;;;9.60;5.15;;;21.80;99.90;;;;;;3654202;22;1361922;-39
2021/06/28 05:54:38;;;;;;;8.32;4.32;;;21.90;99.90;;;;;;3637818;39;20593;-39
2021/06/28 05:57:22;;;;;;;7.68;5.00;;;21.90;99.90;;;;;;3636562;39;20949;-39
2021/06/28 06:00:01;;;;;;;11.65;5.28;;;22.00;99.90;;;;;;3637341;39;20588;-39
2021/06/28 06:02:41;;;;;;;7.45;6.07;;;22.10;99.90;;;;;;3636749;39;20588;-39
2021/06/28 06:05:21;;;;;;;7.07;5.35;;;22.10;99.90;;;;;;3637602;39;20596;-39
2021/06/28 06:08:00;;;;;;;6.00;5.40;;;22.00;99.90;;;;;;3637463;39;20585;-39
2021/06/28 06:10:41;;;;;;;6.88;5.00;;;22.00;99.90;;;;;;3636348;39;20998;-41
2021/06/28 06:13:20;;;;;;;4.65;4.32;;;22.00;99.90;;;;;;3637874;39;20621;-39
2021/06/28 06:16:00;;;;;;;6.05;5.45;;;22.20;99.90;;;;;;3637353;39;20949;-39
2021/06/28 06:18:40;;;;;;;6.65;4.32;;;22.30;99.90;;;;;;3616699;39;20612;-39
2021/06/28 06:21:21;;;;;;;7.13;4.70;;;22.40;99.90;;;;;;3637239;39;20612;-39
2021/06/28 06:23:59;;;;;;;5.78;4.20;;;22.50;99.90;;;;;;3637452;39;20596;-39
2021/06/28 06:26:39;;;;;;;6.82;4.63;;;22.70;99.90;;;;;;3638365;39;20674;-40
2021/06/28 06:29:19;;;;;;;7.72;6.93;;;22.80;99.90;;;;;;3616778;39;20615;-40
2021/06/28 06:31:59;;;;;;;8.60;5.45;;;22.80;99.90;;;;;;3637537;39;20616;-41
2021/06/28 06:34:39;;;;;;;6.50;4.63;;;22.80;99.90;;;;;;3637525;39;20604;-39
2021/06/28 06:37:19;;;;;;;6.28;4.72;;;22.90;99.90;;;;;;3637524;39;20589;-40
2021/06/28 06:39:58;;;;;;;5.68;4.53;;;22.90;99.90;;;;;;3637500;39;20991;-40
2021/06/28 06:42:38;;;;;;;5.25;4.07;;;22.90;99.90;;;;;;3617807;39;20845;-39
2021/06/28 06:45:18;;;;;;;6.28;4.57;;;22.80;99.90;;;;;;3637435;39;20942;-39
2021/06/28 06:47:58;;;;;;;5.10;4.60;;;22.80;99.90;;;;;;3627115;39;20684;-39
2021/06/28 06:50:37;;;;;;;6.07;4.35;;;22.90;99.90;;;;;;3637379;39;20581;-39
2021/06/28 06:53:17;;;;;;;6.13;4.35;;;23.00;99.90;;;;;;3637410;39;20621;-39
2021/06/28 06:55:57;;;;;;;12.38;5.10;;;23.00;99.90;;;;;;3637482;39;20597;-40
2021/06/28 06:58:38;;;;;;;9.55;4.30;;;23.00;99.90;;;;;;3627159;39;20684;-39
2021/06/28 07:01:18;;;;;;;9.02;4.88;;;22.80;99.90;;;;;;3657775;39;20621;-39
2021/06/28 07:03:56;;;;;;;7.75;5.03;;;22.90;99.90;;;;;;3647890;39;20985;-39
2021/06/28 07:06:36;;;;;;;8.60;4.45;;;23.20;99.90;;;;;;3617006;39;20604;-40
2021/06/28 07:09:16;;;;;;;6.43;4.38;;;23.30;99.90;;;;;;3617120;39;21003;-41
2021/06/28 07:11:56;;;;;;;5.10;4.15;;;23.50;99.90;;;;;;3637339;39;20613;-41
2021/06/28 07:14:36;;;;;;;4.57;3.90;;;23.40;99.90;;;;;;3637479;39;20926;-39
2021/06/28 07:17:15;;;;;;;4.68;4.22;;;23.40;99.90;;;;;;3637754;39;20605;-39
2021/06/28 07:19:55;;;;;;;5.22;3.55;;;23.40;99.90;;;;;;3616841;39;20608;-39
2021/06/28 07:22:35;;;;;;;4.28;3.88;;;23.50;99.90;;;;;;3626945;39;20707;-39
2021/06/28 07:25:16;;;;;;;5.85;4.57;;;23.50;99.90;;;;;;3636974;39;20600;-40
2021/06/28 07:27:57;;;;;;;5.25;3.85;;;23.50;99.90;;;;;;3637580;39;20588;-41
2021/06/28 07:30:40;;;;;;;4.75;4.32;;;23.80;99.90;;;;;;3636946;39;20605;-41
2021/06/28 07:33:20;;;;;;;10.77;4.70;;;24.00;99.90;;;;;;3637438;39;21123;-39
2021/06/28 07:36:00;;;;;;;8.05;5.22;;;24.40;99.90;;;;;;3637561;39;20864;-41
2021/06/28 07:38:40;;;;;;;6.57;5.35;;;24.60;99.90;;;;;;3626621;39;20711;-39
2021/06/28 07:41:20;;;;;;;5.15;4.72;;;25.10;99.90;;;;;;3637331;39;20960;-40
2021/06/28 07:44:02;;;;;;;4.25;3.75;;;25.10;99.90;;;;;;3637441;39;20593;-41
2021/06/28 07:46:41;;;;;;;7.07;4.40;;;25.10;99.90;;;;;;3638499;39;20592;-40
2021/06/28 07:49:21;;;;;;;4.57;4.20;;;25.20;99.90;;;;;;3638320;39;20589;-40
2021/06/28 07:52:01;;;;;;;4.10;3.80;;;25.50;99.90;;;;;;3645921;39;20970;-43
2021/06/28 07:54:43;;;;;;;5.18;4.43;;;25.50;99.90;;;;;;3596605;39;20718;-39
2021/06/28 07:57:22;;;;;;;5.00;3.88;;;25.30;99.90;;;;;;3626523;39;20671;-39
2021/06/28 08:00:02;;;;;;;4.90;4.18;;;25.30;99.90;;;;;;3637014;39;20689;-40
2021/06/28 08:02:51;;;;;;;7.60;4.03;;;25.50;99.90;;;;;;3626474;39;20677;-42
2021/06/28 08:05:31;;;;;;;4.82;4.40;;;25.90;99.90;;;;;;3637372;39;20712;-41
2021/06/28 08:08:11;;;;;;;4.75;4.20;;;26.00;99.90;;;;;;3637721;39;20693;-39
2021/06/28 08:10:51;;;;;;;4.00;3.70;;;25.90;99.90;;;;;;3647842;39;20623;-40
2021/06/28 08:13:30;;;;;;;3.85;3.53;;;25.80;99.90;;;;;;3647861;39;20683;-40
2021/06/28 08:16:10;;;;;;;4.03;3.72;;;25.70;99.90;;;;;;3637249;39;20585;-40
2021/06/28 08:18:52;;;;;;;5.97;3.63;;;25.70;99.90;;;;;;3637406;39;20601;-41
2021/06/28 08:21:32;;;;;;;4.78;4.38;;;26.10;99.90;;;;;;3639670;39;20707;-40
2021/06/28 08:24:11;;;;;;;4.57;3.97;;;26.00;99.90;;;;;;3637465;39;20604;-39
2021/06/28 08:26:52;;;;;;;4.70;3.67;;;26.10;99.90;;;;;;3637468;39;20953;-39
2021/06/28 08:29:34;;;;;;;4.07;3.78;;;26.10;99.90;;;;;;3640635;39;20565;-40
2021/06/28 08:32:14;;;;;;;4.45;4.05;;;26.20;99.90;;;;;;3628000;39;20606;-41
2021/06/28 08:34:55;;;;;;;3.78;3.58;;;26.40;99.90;;;;;;3648523;39;20587;-40
2021/06/28 08:37:35;;;;;;;5.78;4.18;;;26.60;99.90;;;;;;3627074;39;20682;-41
2021/06/28 08:40:15;;;;;;;6.45;4.45;;;26.90;99.90;;;;;;3610157;39;20691;-39
2021/06/28 08:42:55;;;;;;;4.43;4.13;;;27.00;99.90;;;;;;3637142;39;20588;-39
2021/06/28 08:45:37;;;;;;;6.15;4.47;;;27.20;99.90;;;;;;3620884;39;20598;-42
2021/06/28 08:48:16;;;;;;;4.25;3.85;;;27.20;99.90;;;;;;3637602;39;20693;-40
2021/06/28 08:50:56;;;;;;;4.47;4.07;;;27.40;99.90;;;;;;3637903;39;20625;-39
2021/06/28 08:53:36;;;;;;;5.05;3.85;;;27.20;99.90;;;;;;3637807;39;20677;-39
2021/06/28 08:56:15;;;;;;;4.85;4.45;;;26.90;99.90;;;;;;3637558;39;20589;-39
2021/06/28 08:58:55;;;;;;;3.85;3.55;;;27.00;99.90;;;;;;3627336;39;20675;-40
2021/06/28 09:01:36;;;;;;;4.97;4.47;;;27.20;99.90;;;;;;3637337;39;20608;-40
2021/06/28 09:04:17;;;;;;;4.80;4.10;;;27.40;99.90;;;;;;3648164;39;20945;-39
2021/06/28 09:07:16;;;;;;;48.72;13.60;;;27.40;99.90;;;;;;3617485;39;20600;-40
2021/06/28 09:09:57;;;;;;;6.07;3.95;;;27.60;99.90;;;;;;3637367;39;20604;-40
2021/06/28 09:12:49;;;;;;;4.85;4.45;;;27.70;99.90;;;;;;3616918;39;20615;-39
2021/06/28 09:15:35;;;;;;;4.65;4.25;;;27.90;99.90;;;;;;3637271;39;20585;-41
2021/06/28 09:18:17;;;;;;;5.18;4.57;;;28.10;99.90;;;;;;3637425;39;20577;-39
2021/06/28 09:21:08;;;;;;;4.32;3.92;;;28.10;99.90;;;;;;3626922;39;20695;-39
2021/06/28 09:23:48;;;;;;;4.30;3.85;;;27.90;99.90;;;;;;3645168;39;20687;-39
2021/06/28 09:26:32;;;;;;;4.72;3.67;;;27.80;99.90;;;;;;3655147;39;21009;-40
2021/06/28 09:29:10;;;;;;;6.97;4.55;;;27.50;99.90;;;;;;3596185;39;21014;-39
2021/06/28 09:31:50;;;;;;;4.07;3.78;;;27.70;99.90;;;;;;3637083;39;20616;-41
2021/06/28 09:34:34;;;;;;;4.80;4.47;;;27.90;99.90;;;;;;3647255;39;20676;-39
2021/06/28 09:37:17;;;;;;;5.47;4.72;;;27.60;99.90;;;;;;3643179;39;20599;-41
2021/06/28 09:39:58;;;;;;;4.75;4.35;;;27.80;99.90;;;;;;3626988;39;20686;-40
2021/06/28 09:42:37;;;;;;;6.03;4.22;;;28.10;99.90;;;;;;3658776;39;20685;-39
2021/06/28 09:45:20;;;;;;;4.10;3.90;;;28.00;99.90;;;;;;3647617;39;20606;-40
2021/06/28 09:47:57;;;;;;;5.07;4.72;;;28.10;99.90;;;;;;3608207;39;1228570;-40
2021/06/28 09:50:40;;;;;;;4.40;4.10;;;28.40;99.90;;;;;;3669208;39;20550;-40
2021/06/28 09:53:37;;;;;;;4.85;4.45;;;28.60;99.90;;;;;;3648133;39;20878;-39
2021/06/28 09:56:36;;;;;;;4.78;4.47;;;28.60;99.90;;;;;;3631703;39;20668;-40
2021/06/28 09:59:41;;;;;;;5.75;4.75;;;28.70;99.90;;;;;;3606761;39;20950;-39
2021/06/28 10:02:40;;;;;;;11.25;5.32;;;29.10;99.90;;;;;;3628049;39;20676;-39
2021/06/28 10:05:59;;;;;;;4.55;4.13;;;28.90;99.90;;;;;;3639602;39;20602;-39
2021/06/28 10:09:08;;;;;;;5.25;4.95;;;28.40;99.90;;;;;;3642159;39;20563;-41
2021/06/28 10:12:18;;;;;;;5.15;4.65;;;28.80;99.90;;;;;;3617381;39;20582;-39
2021/06/28 10:15:29;;;;;;;5.28;4.88;;;29.40;99.90;;;;;;3606260;39;20578;-40
2021/06/28 10:18:40;;;;;;;4.50;4.20;;;28.70;99.90;;;;;;3647776;39;20569;-41
2021/06/28 10:21:39;;;;;;;4.88;4.55;;;28.40;99.90;;;;;;3617405;39;20596;-40
2021/06/28 10:24:33;;;;;;;4.65;3.95;;;28.10;99.90;;;;;;3616625;39;20659;-39
2021/06/28 10:27:37;;;;;;;5.55;5.05;;;28.50;99.90;;;;;;3606136;39;20863;-40
2021/06/28 10:30:31;;;;;;;4.47;4.18;;;29.00;99.90;;;;;;3616269;39;20570;-40
2021/06/28 10:33:14;;;;;;;4.78;4.47;;;29.40;99.90;;;;;;3244779;39;15046308;-40
2021/06/28 10:36:12;;;;;;;4.80;4.50;;;29.80;99.90;;;;;;3616566;39;20659;-40
2021/06/28 10:39:07;;;;;;;5.13;4.82;;;30.00;99.90;;;;;;3617126;39;20647;-44
2021/06/28 10:42:30;;;;;;;5.20;4.88;;;30.50;99.90;;;;;;3604115;39;20588;-41
2021/06/28 10:46:02;;;;;;;4.43;4.03;;;30.90;99.90;;;;;;3617247;39;20655;-39
2021/06/28 10:48:48;;;;;;;4.53;4.18;;;30.10;99.90;;;;;;3626546;39;20548;-40
2021/06/28 10:51:40;;;;;;;5.50;4.82;;;30.10;99.90;;;;;;3633869;39;20592;-40
2021/06/28 10:54:33;;;;;;;4.95;4.53;;;30.30;99.90;;;;;;3625666;39;20222;-41
2021/06/28 10:57:18;;;;;;;5.95;5.30;;;30.40;99.90;;;;;;3625007;39;20312;-41
2021/06/28 11:00:05;;;;;;;5.13;4.63;;;30.40;99.90;;;;;;3625845;39;20519;-39
2021/06/28 11:02:51;;;;;;;9.23;5.63;;;29.90;99.90;;;;;;3627075;39;20231;-37
2021/06/28 11:05:37;;;;;;;4.93;4.32;;;29.70;99.90;;;;;;3626860;39;20238;-38
2021/06/28 11:08:23;;;;;;;7.75;4.78;;;30.30;99.90;;;;;;3621592;39;20239;-37
2021/06/28 11:11:09;;;;;;;5.55;4.88;;;30.70;99.90;;;;;;3625752;39;20245;-37
2021/06/28 11:13:54;;;;;;;4.63;4.32;;;30.90;99.90;;;;;;3615885;39;20243;-37
2021/06/28 11:16:40;;;;;;;5.55;5.05;;;30.80;99.90;;;;;;3622158;39;20239;-38
2021/06/28 11:20:05;;;;;;;5.85;5.35;;;30.90;99.90;;;;;;3626480;39;20223;-38
2021/06/28 11:23:00;;;;;;;5.40;4.97;;;31.30;99.90;;;;;;3620346;39;20234;-39
2021/06/28 11:25:37;;;;;;;5.95;5.45;;;31.50;99.90;;;;;;3626073;39;20242;-38
2021/06/28 11:28:39;;;;;;;4.95;4.65;;;31.20;99.90;;;;;;3645960;39;20959;-38
2021/06/28 11:31:36;;;;;;;4.82;4.43;;;30.90;99.90;;;;;;3613522;39;20582;-37
2021/06/28 11:34:44;;;;;;;5.70;5.20;;;30.60;99.90;;;;;;3614805;39;20570;-38
2021/06/28 11:37:11;;;;;;;5.15;4.85;;;30.50;99.90;;;;;;3615421;39;20798;-38
2021/06/28 11:39:54;;;;;;;6.70;5.45;;;30.30;99.90;;;;;;3615120;39;20236;-38
2021/06/28 11:43:01;;;;;;;5.53;5.13;;;30.20;99.90;;;;;;3606555;39;20656;-37
2021/06/28 11:45:58;;;;;;;5.38;4.97;;;30.10;99.90;;;;;;3647019;39;20542;-37
2021/06/28 11:48:58;;;;;;;5.80;5.40;;;30.00;99.90;;;;;;3638232;39;20830;-38
2021/06/28 11:51:55;;;;;;;5.38;4.97;;;29.90;99.90;;;;;;3640286;39;20606;-37
2021/06/28 11:55:08;;;;;;;6.35;5.82;;;29.80;99.90;;;;;;3640966;39;20841;-38
2021/06/28 11:58:01;;;;;;;5.15;4.75;;;29.90;99.90;;;;;;3617554;39;20881;-38
2021/06/28 12:01:10;;;;;;;5.07;4.70;;;29.90;99.90;;;;;;3625904;39;20582;-37
2021/06/28 12:04:06;;;;;;;5.88;5.25;;;29.90;99.90;;;;;;3616646;39;20917;-38
2021/06/28 12:07:03;;;;;;;5.85;4.95;;;29.90;99.90;;;;;;3615883;39;20566;-37
2021/06/28 12:10:06;;;;;;;4.60;4.30;;;29.90;99.90;;;;;;3643927;39;20879;-37
2021/06/28 12:12:45;;;;;;;5.13;4.63;;;30.00;99.90;;;;;;3034257;39;23996800;-37
2021/06/28 12:15:53;;;;;;;5.03;4.72;;;29.90;99.90;;;;;;3641123;39;20827;-37
2021/06/28 12:19:08;;;;;;;4.65;4.35;;;29.80;99.90;;;;;;3605117;39;20568;-37
2021/06/28 12:22:19;;;;;;;5.60;5.05;;;29.80;99.90;;;;;;3605430;39;20572;-37
2021/06/28 12:25:15;;;;;;;5.20;4.75;;;30.10;99.90;;;;;;3626516;39;20653;-38
2021/06/28 12:27:54;;;;;;;4.47;4.15;;;30.30;99.90;;;;;;3626595;39;21108;-37
2021/06/28 12:30:37;;;;;;;6.20;5.20;;;30.30;99.90;;;;;;3603968;39;1230730;-37
2021/06/28 12:33:18;;;;;;;5.05;4.75;;;30.20;99.90;;;;;;3636152;39;20659;-37
2021/06/28 12:36:00;;;;;;;6.03;5.43;;;30.10;99.90;;;;;;3656542;39;20622;-38
2021/06/28 12:38:38;;;;;;;6.80;5.25;;;30.20;99.90;;;;;;3600088;39;1223495;-38
2021/06/28 12:41:23;;;;;;;4.68;4.28;;;30.10;99.90;;;;;;3620296;39;20626;-37
2021/06/28 12:44:02;;;;;;;5.97;5.50;;;30.00;99.90;;;;;;3636875;39;21016;-37
2021/06/28 12:46:44;;;;;;;4.55;4.25;;;30.20;99.90;;;;;;3606408;39;20617;-37
2021/06/28 12:49:24;;;;;;;6.07;4.90;;;30.10;99.90;;;;;;3636754;39;20605;-37
2021/06/28 12:52:33;;;;;;;5.28;4.88;;;30.10;99.90;;;;;;3612143;39;20694;-37
2021/06/28 12:55:24;;;;;;;6.07;5.65;;;29.90;99.90;;;;;;3627038;39;20967;-37
2021/06/28 12:58:22;;;;;;;7.65;5.85;;;29.40;99.90;;;;;;3640010;39;21003;-37
2021/06/28 13:01:32;;;;;;;6.07;5.57;;;29.10;99.90;;;;;;3637106;39;20627;-37
2021/06/28 13:04:24;;;;;;;6.10;5.70;;;28.60;99.90;;;;;;3633521;39;20575;-37
2021/06/28 13:07:25;;;;;;;6.35;5.78;;;28.30;99.90;;;;;;3617487;39;21094;-37
2021/06/28 13:10:18;;;;;;;6.57;6.18;;;28.00;99.90;;;;;;3617071;39;20651;-37
2021/06/28 13:13:22;;;;;;;6.60;6.05;;;27.80;99.90;;;;;;3626208;39;20649;-37
2021/06/28 13:16:31;;;;;;;5.95;5.22;;;27.60;99.90;;;;;;3616300;39;20570;-37
2021/06/28 13:19:31;;;;;;;6.15;5.70;;;27.60;99.90;;;;;;3647595;39;20557;-37
2021/06/28 13:22:55;;;;;;;6.88;5.57;;;27.50;99.90;;;;;;3607547;39;20576;-37
2021/06/28 13:26:11;;;;;;;5.90;5.38;;;27.40;99.90;;;;;;3602466;39;20572;-37
2021/06/28 13:29:20;;;;;;;6.70;6.15;;;27.40;99.90;;;;;;3642044;39;20874;-37
2021/06/28 13:32:22;;;;;;;6.18;5.63;;;27.40;99.90;;;;;;3639153;39;20559;-37
2021/06/28 13:35:29;;;;;;;5.53;5.03;;;27.30;99.90;;;;;;3643973;39;20585;-37
2021/06/28 13:38:25;;;;;;;6.40;5.57;;;27.20;99.90;;;;;;3616505;39;20659;-37
2021/06/28 13:41:22;;;;;;;8.30;5.82;;;27.40;99.90;;;;;;3623259;39;20582;-37
2021/06/28 13:44:18;;;;;;;6.32;5.82;;;27.40;99.90;;;;;;3643350;39;20539;-37
2021/06/28 13:47:16;;;;;;;6.13;5.57;;;27.50;99.90;;;;;;3616743;39;20571;-37
2021/06/28 13:50:20;;;;;;;6.32;5.82;;;27.40;99.90;;;;;;3644194;39;20554;-37
2021/06/28 13:53:22;;;;;;;6.45;5.88;;;27.60;99.90;;;;;;3615935;39;20570;-37
2021/06/28 13:56:33;;;;;;;5.88;5.47;;;27.60;99.90;;;;;;3613711;39;20654;-37
2021/06/28 13:59:30;;;;;;;7.53;5.63;;;27.40;99.90;;;;;;3615922;39;20705;-37
2021/06/28 14:02:27;;;;;;;5.93;5.53;;;27.30;99.90;;;;;;3632425;39;20603;-37
2021/06/28 14:05:21;;;;;;;5.90;5.40;;;27.30;99.90;;;;;;3617006;39;20666;-37
2021/06/28 14:08:17;;;;;;;6.32;5.93;;;27.30;99.90;;;;;;3627911;39;20680;-39
2021/06/28 14:11:19;;;;;;;6.60;6.07;;;27.20;99.90;;;;;;3605908;39;20982;-37
2021/06/28 14:14:16;;;;;;;5.82;5.32;;;27.50;99.90;;;;;;3647432;39;20558;-37
2021/06/28 14:17:13;;;;;;;5.90;5.50;;;27.50;99.90;;;;;;3641276;39;20551;-37
2021/06/28 14:20:17;;;;;;;7.03;6.32;;;27.50;99.90;;;;;;3617035;39;21019;-37
2021/06/28 14:23:11;;;;;;;7.30;6.75;;;27.40;99.90;;;;;;3616172;39;20647;-37
2021/06/28 14:26:07;;;;;;;6.20;5.80;;;27.60;99.90;;;;;;3615979;39;20845;-37
2021/06/28 14:29:00;;;;;;;5.55;5.15;;;28.10;99.90;;;;;;3617294;39;20597;-38
2021/06/28 14:31:54;;;;;;;6.28;5.78;;;28.50;99.90;;;;;;3624169;39;21398;-38
2021/06/28 14:34:46;;;;;;;6.32;5.63;;;28.40;99.90;;;;;;3616580;39;20646;-38
2021/06/28 14:37:43;;;;;;;7.28;6.72;;;28.60;99.90;;;;;;3646886;39;20549;-38
2021/06/28 14:40:42;;;;;;;5.80;5.40;;;28.90;99.90;;;;;;3626720;39;20561;-38
2021/06/28 14:43:38;;;;;;;6.70;5.22;;;29.00;99.90;;;;;;3636214;39;20571;-38
2021/06/28 14:46:35;;;;;;;5.55;5.05;;;29.10;99.90;;;;;;3643486;39;20572;-37
2021/06/28 14:49:37;;;;;;;6.18;5.57;;;29.10;99.90;;;;;;3643773;39;20976;-38
2021/06/28 14:52:31;;;;;;;6.20;5.70;;;28.90;99.90;;;;;;3615767;39;20690;-37
2021/06/28 14:55:36;;;;;;;6.18;5.63;;;29.80;99.90;;;;;;3640059;39;20987;-38
2021/06/28 14:58:32;;;;;;;11.13;6.05;;;30.40;99.90;;;;;;3642714;39;20541;-38
2021/06/28 15:01:30;;;;;;;6.18;5.60;;;31.10;99.90;;;;;;3638012;39;20566;-38
2021/06/28 15:04:42;;;;;;;5.03;4.72;;;31.50;99.90;;;;;;3605883;39;20572;-38
2021/06/28 15:08:06;;;;;;;9.10;5.50;;;31.50;99.90;;;;;;3660043;22;20607;-86
2021/06/28 15:10:46;;;;;;;8.40;7.57;;;31.30;99.90;;;;;;1226617;22;20484;-83
2021/06/28 15:13:56;;;;;;;6.18;5.78;;;31.00;99.90;;;;;;3739738;22;20566;-84
2021/06/28 15:29:27;;;;;;;7.35;6.85;;;33.30;99.90;;;;;;3631841;39;20226;-86
2021/06/28 15:35:27;;;;;;;11.13;5.32;;;33.80;99.90;;;;;;3631287;39;20232;-89
2021/06/28 15:44:55;;;;;;;6.55;6.05;;;32.20;99.90;;;;;;3694417;22;21201;-87
2021/06/28 16:16:38;;;;;;;5.85;5.45;;;30.50;99.90;;;;;;3655160;22;20257;-89
2021/06/28 16:35:47;;;;;;;6.22;5.68;;;29.20;99.90;;;;;;3591347;40;20242;-88
2021/06/28 16:38:47;;;;;;;7.32;6.63;;;28.70;99.90;;;;;;3663497;39;20541;-86
2021/06/28 16:44:50;;;;;;;6.22;5.82;;;28.00;99.90;;;;;;3631365;39;20239;-88
2021/06/28 17:03:29;;;;;;;6.32;5.78;;;27.50;99.90;;;;;;3704618;22;20605;-87
2021/06/28 17:49:04;;;;;;;11.27;10.38;;;27.10;99.90;;;;;;3611159;40;20241;-89
2021/06/28 17:58:06;;;;;;;7.63;6.93;;;26.70;99.90;;;;;;3611547;40;20224;-88
2021/06/28 18:07:24;;;;;;;6.35;5.82;;;26.30;99.90;;;;;;3695814;22;20590;-90
2021/06/28 18:13:15;;;;;;;7.97;7.28;;;26.30;99.90;;;;;;3671554;22;20280;-87
2021/06/28 18:16:06;;;;;;;8.25;7.65;;;26.30;99.90;;;;;;3701726;22;20623;-89
2021/06/28 18:22:35;;;;;;;7.43;6.65;;;26.30;99.90;;;;;;3680777;22;20244;-85
2021/06/28 18:32:00;;;;;;;7.47;6.88;;;26.10;99.90;;;;;;1294217;22;21721;-87
2021/06/28 18:48:09;;;;;;;7.95;7.32;;;25.50;99.90;;;;;;3701801;22;20239;-86
2021/06/28 19:06:47;;;;;;;7.05;6.32;;;25.20;99.90;;;;;;3692895;22;21148;-87
2021/06/28 19:16:27;;;;;;;4.82;4.40;;;24.90;99.90;;;;;;3682917;22;21623;31
2021/06/28 19:37:50;;;;;;;3.58;3.38;;;24.00;99.90;;;;;;3680022;22;20240;-86
2021/06/28 19:52:58;;;;;;;3.80;3.55;;;23.30;99.90;;;;;;3704013;22;21264;31
2021/06/28 19:56:06;;;;;;;3.85;3.45;;;23.60;99.90;;;;;;3716978;22;20553;-86
2021/06/28 20:02:45;;;;;;;4.25;3.95;;;23.50;99.90;;;;;;1226010;22;21729;-87
2021/06/28 20:09:05;;;;;;;4.45;3.65;;;23.50;99.90;;;;;;3722766;22;21170;-85
2021/06/28 20:18:32;;;;;;;3.38;3.17;;;23.20;99.90;;;;;;3688604;22;21215;-86
2021/06/28 20:27:42;;;;;;;3.80;3.50;;;23.20;99.90;;;;;;3653152;22;20243;-85
2021/06/28 20:30:53;;;;;;;5.32;4.00;;;22.70;99.90;;;;;;3704238;22;20571;-85
2021/06/28 20:40:21;;;;;;;5.50;4.95;;;22.30;99.90;;;;;;3691630;22;21156;-84
2021/06/28 20:43:41;;;;;;;4.78;4.47;;;22.20;99.90;;;;;;3759950;22;21599;-87
2021/06/28 20:52:52;;;;;;;4.78;4.45;;;21.80;99.90;;;;;;3698496;22;20244;-89
2021/06/28 21:00:41;;;;;;;5.75;4.85;;;21.60;99.90;;;;;;3639270;39;20240;-85
2021/06/28 21:03:53;;;;;;;5.30;4.80;;;21.70;99.90;;;;;;3659815;39;21111;-82
2021/06/28 21:09:59;;;;;;;6.45;5.45;;;21.30;99.90;;;;;;3630521;39;20208;-84
2021/06/28 21:13:04;;;;;;;5.97;5.00;;;21.30;99.90;;;;;;3720678;22;20558;-80
2021/06/28 21:15:41;;;;;;;4.65;4.28;;;21.40;99.90;;;;;;3648633;39;20351;-79
2021/06/28 21:18:19;;;;;;;8.57;5.67;;;21.50;99.90;;;;;;3186495;39;18744538;-79
2021/06/28 21:21:16;;;;;;;6.53;5.95;;;21.50;99.90;;;;;;3662102;39;20545;-81
2021/06/28 21:24:13;;;;;;;8.43;5.88;;;21.60;99.90;;;;;;3680546;22;20584;-81
2021/06/28 21:27:22;;;;;;;5.38;4.90;;;21.50;99.90;;;;;;3661034;39;20581;-82
2021/06/28 21:30:22;;;;;;;7.40;5.13;;;21.30;99.90;;;;;;3661971;39;20545;-82
2021/06/28 21:33:22;;;;;;;6.60;5.97;;;21.20;99.90;;;;;;3661665;39;20549;-80
2021/06/28 21:36:20;;;;;;;5.75;5.15;;;21.30;99.90;;;;;;3672324;39;20532;-82
2021/06/28 21:39:23;;;;;;;5.57;5.05;;;21.60;99.90;;;;;;3646125;39;20560;-81
2021/06/28 21:42:20;;;;;;;5.38;4.97;;;21.70;99.90;;;;;;3661771;39;20553;-85
2021/06/28 21:45:18;;;;;;;6.22;4.85;;;21.80;99.90;;;;;;3653033;39;20560;-81
2021/06/28 21:48:15;;;;;;;6.10;5.60;;;22.20;99.90;;;;;;3656955;39;20547;-82
2021/06/28 21:51:12;;;;;;;6.93;6.25;;;21.60;99.90;;;;;;3655720;39;20547;-84
2021/06/28 21:54:12;;;;;;;6.63;6.13;;;21.20;99.90;;;;;;3651842;39;20562;-85
2021/06/28 21:57:23;;;;;;;7.50;6.88;;;21.00;99.90;;;;;;3646349;39;20552;-83
2021/06/28 22:00:02;;;;;;;5.75;5.30;;;21.10;99.90;;;;;;2955254;39;26902642;-86
2021/06/28 22:03:10;;;;;;;5.47;5.07;;;21.10;99.90;;;;;;3658961;39;20542;-80
2021/06/28 22:06:10;;;;;;;6.72;6.13;;;21.20;99.90;;;;;;3648520;39;20549;-80
2021/06/28 22:09:08;;;;;;;6.10;5.47;;;21.40;99.90;;;;;;3662297;39;20935;-81
2021/06/28 22:12:06;;;;;;;6.95;6.43;;;21.60;99.90;;;;;;3662198;39;21093;-82
2021/06/28 22:15:08;;;;;;;7.43;6.00;;;22.00;99.90;;;;;;3638580;39;20566;-82
2021/06/28 22:18:07;;;;;;;6.35;5.75;;;21.50;99.90;;;;;;3662401;39;20545;-81
2021/06/28 22:21:07;;;;;;;8.10;6.90;;;20.80;99.90;;;;;;3639150;39;20542;-80
2021/06/28 22:24:05;;;;;;;7.05;6.45;;;20.50;99.90;;;;;;3619311;39;20582;-80
2021/06/28 22:27:02;;;;;;;7.30;6.80;;;20.70;99.90;;;;;;3662467;39;20545;-81
2021/06/28 22:29:59;;;;;;;7.00;6.40;;;20.60;99.90;;;;;;3662247;39;20545;-84
2021/06/28 22:32:56;;;;;;;7.07;6.45;;;20.80;99.90;;;;;;3662249;39;20561;-81
2021/06/28 22:35:56;;;;;;;6.82;6.30;;;20.80;99.90;;;;;;3662313;39;20568;-82
2021/06/28 22:38:53;;;;;;;6.90;6.28;;;20.90;99.90;;;;;;3662143;39;20557;-86
2021/06/28 22:41:32;;;;;;;5.95;5.55;;;20.90;99.90;;;;;;3187311;39;18785464;-84
2021/06/28 22:44:39;;;;;;;7.50;6.90;;;21.00;99.90;;;;;;3637936;39;20988;-82
2021/06/28 22:47:37;;;;;;;7.25;6.50;;;21.30;99.90;;;;;;3662198;39;20545;-82
2021/06/28 22:50:34;;;;;;;6.18;5.68;;;21.30;99.90;;;;;;3662388;39;21020;-84
2021/06/28 22:53:32;;;;;;;7.40;6.80;;;21.00;99.90;;;;;;3662431;39;20549;-81
2021/06/28 22:56:46;;;;;;;7.40;6.53;;;20.70;99.90;;;;;;3650620;39;20547;-82
2021/06/28 22:59:53;;;;;;;8.48;7.68;;;20.50;99.90;;;;;;3656885;39;20981;-80
2021/06/28 23:02:50;;;;;;;7.95;7.32;;;20.20;99.90;;;;;;3662537;39;20549;-80
2021/06/28 23:05:47;;;;;;;7.18;6.68;;;20.40;99.90;;;;;;3653177;39;20566;-82
2021/06/28 23:08:47;;;;;;;7.45;6.78;;;20.50;99.90;;;;;;3644901;39;20564;-86
2021/06/28 23:11:47;;;;;;;6.72;6.22;;;20.60;99.90;;;;;;3645193;39;20545;-81
2021/06/28 23:14:44;;;;;;;7.38;6.70;;;21.00;99.90;;;;;;3652998;39;20558;-83
2021/06/28 23:17:23;;;;;;;8.70;7.20;;;21.40;99.90;;;;;;3181361;39;18743593;-81
2021/06/28 23:20:19;;;;;;;6.38;5.95;;;21.80;99.90;;;;;;3662363;39;20537;-85
2021/06/28 23:23:28;;;;;;;5.35;4.95;;;21.80;99.90;;;;;;3650744;39;21143;-81
2021/06/28 23:26:26;;;;;;;7.10;6.50;;;21.50;99.90;;;;;;3662388;39;20537;-80
2021/06/28 23:29:23;;;;;;;6.25;5.75;;;21.60;99.90;;;;;;3683221;39;20541;-81
2021/06/28 23:32:04;;;;;;;7.93;6.22;;;21.70;99.90;;;;;;3190951;39;18638548;-87
2021/06/28 23:35:16;;;;;;;7.18;6.53;;;21.70;99.90;;;;;;3653839;39;20571;-84
2021/06/28 23:38:10;;;;;;;7.55;7.05;;;21.40;99.90;;;;;;3651219;39;20642;-82
2021/06/28 23:41:06;;;;;;;7.00;6.45;;;20.90;99.90;;;;;;3672827;39;20548;-81
2021/06/28 23:43:47;;;;;;;5.60;5.20;;;20.90;99.90;;;;;;3187996;39;18729263;-82
2021/06/28 23:46:58;;;;;;;7.93;7.22;;;20.60;99.90;;;;;;3661172;39;20545;-82
2021/06/28 23:49:55;;;;;;;7.53;6.88;;;20.40;99.90;;;;;;3662367;39;20545;-81
2021/06/28 23:52:52;;;;;;;8.90;6.18;;;20.10;99.90;;;;;;3649462;39;20551;-80
2021/06/28 23:55:31;;;;;;;6.80;6.18;;;20.00;99.90;;;;;;2932165;39;27252983;-81
2021/06/28 23:58:27;;;;;;;6.18;5.78;;;20.30;99.90;;;;;;3645911;39;20561;-80
